Desert Spring — V7XQ8 — position and weather

sailwx.info

Track history (hours):
 
Tides and Currents Weather Stations Pressure Air Temp Water Temp Dewpoint Dewpoint Depression Visibility Wind Speed Wind Dir Waves Ship Positions

Desert Spring

Last reported at 2016-Apr-08 06:25 UTC. Time now 2016-May-06 13:00 UTC.
Position N 27°56' W 092°38'.
Warning: this ship's position is 28 days out of date.

Length 193 m; draft 12.2 m.

Type: Cargo ship. MMSI: 538004547.

Date/timePositionNaut miles runAvg speedWind from/ knotsBaromVisibWave heightAir tempDewpointWater temp
2016-Apr-08 06:25N 27°56' W 092°38'1414.0
2016-Apr-08 05:24N 28°07' W 092°48'1213.4
2016-Apr-08 04:29N 28°16' W 092°57'1313.6
2016-Apr-08 03:33N 28°23' W 093°09'1413.6
2016-Apr-08 02:33N 28°31' W 093°22'1313.5
2016-Apr-08 01:33N 28°39' W 093°34'1313.3
2016-Apr-08 00:33N 28°47' W 093°46'1313.2
2016-Apr-07 23:33N 28°51' W 094°01'1513.5
2016-Apr-07 22:25N 28°55' W 094°18'1113.2
2016-Apr-07 21:33N 28°59' W 094°30'11 1.7
2016-Apr-07 15:07N 29°04' W 094°41'18 0.5
2016-Apr-06 00:09N 29°21' W 094°47'6 9.4
2016-Apr-05 23:31N 29°26' W 094°50'9 9.7
2016-Apr-05 22:34N 29°34' W 094°56'9 9.2
2016-Apr-05 21:33N 29°42' W 095°01'5 4.8
2016-Apr-05 20:32N 29°45' W 095°06'4 3.6
2016-Apr-05 19:30N 29°45' W 095°10'0 0.1
2016-Apr-05 18:34N 29°45' W 095°10'0 0.0
2016-Apr-05 17:33N 29°45' W 095°10'0 0.0
2016-Apr-05 16:33N 29°45' W 095°10'0 0.0
2016-Apr-05 15:33N 29°45' W 095°10'0 0.0
2016-Apr-05 14:33N 29°45' W 095°10'0 0.0
2016-Apr-05 13:28N 29°45' W 095°10'0 0.0
2016-Apr-05 12:30N 29°45' W 095°10'0 0.0
2016-Apr-05 11:34N 29°45' W 095°10'0 0.0
2016-Apr-05 10:34N 29°45' W 095°10'0 0.0
2016-Apr-05 09:33N 29°45' W 095°10'0 0.0
2016-Apr-05 08:33N 29°45' W 095°10'0 0.0
2016-Apr-05 07:30N 29°45' W 095°10'0 0.0
2016-Apr-05 06:27N 29°45' W 095°10'0 0.0
2016-Apr-05 05:33N 29°45' W 095°10'0 0.0
2016-Apr-05 04:33N 29°45' W 095°10'0 0.0
2016-Apr-05 03:30N 29°45' W 095°10'0 0.0
2016-Apr-05 02:33N 29°45' W 095°10'0 0.0
2016-Apr-05 01:30N 29°45' W 095°10'0 0.0
2016-Apr-05 00:33N 29°45' W 095°10'0 0.0
2016-Apr-04 23:33N 29°45' W 095°10'0 0.0
2016-Apr-04 22:33N 29°45' W 095°10'0 0.0
2016-Apr-04 21:27N 29°45' W 095°10'0 0.0
2016-Apr-04 20:33N 29°45' W 095°10'0 0.0
2016-Apr-04 19:33N 29°45' W 095°10'0 0.0
2016-Apr-04 18:33N 29°45' W 095°10'0 0.0
2016-Apr-04 17:33N 29°45' W 095°10'0 0.0
2016-Apr-04 16:33N 29°45' W 095°10'0 0.0
2016-Apr-04 15:33N 29°45' W 095°10'0 0.0
2016-Apr-04 14:33N 29°45' W 095°10'0 0.0
2016-Apr-04 13:33N 29°45' W 095°10'0 0.0
2016-Apr-04 12:33N 29°45' W 095°10'0 0.0
2016-Apr-04 11:33N 29°45' W 095°10'0 0.0
2016-Apr-04 10:33N 29°45' W 095°10'0 0.0
2016-Apr-04 09:33N 29°45' W 095°10'0 0.0
2016-Apr-04 08:33N 29°45' W 095°10'0 0.0
2016-Apr-04 00:33N 29°45' W 095°10'3 3.0
2016-Apr-03 23:33N 29°44' W 095°07'8 7.8
2016-Apr-03 22:33N 29°41' W 094°59'1312.5
2016-Apr-03 21:33N 29°30' W 094°52'  
Track history (hours):
 
Tides and Currents Weather Stations Pressure Air Temp Water Temp Dewpoint Dewpoint Depression Visibility Wind Speed Wind Dir Waves Ship Positions

Desert Spring

Last reported at 2016-Apr-08 06:25 UTC. Time now 2016-May-06 13:00 UTC.
Position N 27°56' W 092°38'.
Warning: this ship's position is 28 days out of date.

Length 193 m; draft 12.2 m.

Type: Cargo ship. MMSI: 538004547.

Date/timePositionNaut miles runAvg speedWind from/ knotsBaromVisibWave heightAir tempDewpointWater temp
2016-Apr-08 06:25N 27°56' W 092°38'1414.0
2016-Apr-08 05:24N 28°07' W 092°48'1213.4
2016-Apr-08 04:29N 28°16' W 092°57'1313.6
2016-Apr-08 03:33N 28°23' W 093°09'1413.6
2016-Apr-08 02:33N 28°31' W 093°22'1313.5
2016-Apr-08 01:33N 28°39' W 093°34'1313.3
2016-Apr-08 00:33N 28°47' W 093°46'1313.2
2016-Apr-07 23:33N 28°51' W 094°01'1513.5
2016-Apr-07 22:25N 28°55' W 094°18'1113.2
2016-Apr-07 21:33N 28°59' W 094°30'11 1.7
2016-Apr-07 15:07N 29°04' W 094°41'18 0.5
2016-Apr-06 00:09N 29°21' W 094°47'6 9.4
2016-Apr-05 23:31N 29°26' W 094°50'9 9.7
2016-Apr-05 22:34N 29°34' W 094°56'9 9.2
2016-Apr-05 21:33N 29°42' W 095°01'5 4.8
2016-Apr-05 20:32N 29°45' W 095°06'4 3.6
2016-Apr-05 19:30N 29°45' W 095°10'0 0.1
2016-Apr-05 18:34N 29°45' W 095°10'0 0.0
2016-Apr-05 17:33N 29°45' W 095°10'0 0.0
2016-Apr-05 16:33N 29°45' W 095°10'0 0.0
2016-Apr-05 15:33N 29°45' W 095°10'0 0.0
2016-Apr-05 14:33N 29°45' W 095°10'0 0.0
2016-Apr-05 13:28N 29°45' W 095°10'0 0.0
2016-Apr-05 12:30N 29°45' W 095°10'0 0.0
2016-Apr-05 11:34N 29°45' W 095°10'0 0.0
2016-Apr-05 10:34N 29°45' W 095°10'0 0.0
2016-Apr-05 09:33N 29°45' W 095°10'0 0.0
2016-Apr-05 08:33N 29°45' W 095°10'0 0.0
2016-Apr-05 07:30N 29°45' W 095°10'0 0.0
2016-Apr-05 06:27N 29°45' W 095°10'0 0.0
2016-Apr-05 05:33N 29°45' W 095°10'0 0.0
2016-Apr-05 04:33N 29°45' W 095°10'0 0.0
2016-Apr-05 03:30N 29°45' W 095°10'0 0.0
2016-Apr-05 02:33N 29°45' W 095°10'0 0.0
2016-Apr-05 01:30N 29°45' W 095°10'0 0.0
2016-Apr-05 00:33N 29°45' W 095°10'0 0.0
2016-Apr-04 23:33N 29°45' W 095°10'0 0.0
2016-Apr-04 22:33N 29°45' W 095°10'0 0.0
2016-Apr-04 21:27N 29°45' W 095°10'0 0.0
2016-Apr-04 20:33N 29°45' W 095°10'0 0.0
2016-Apr-04 19:33N 29°45' W 095°10'0 0.0
2016-Apr-04 18:33N 29°45' W 095°10'0 0.0
2016-Apr-04 17:33N 29°45' W 095°10'0 0.0
2016-Apr-04 16:33N 29°45' W 095°10'0 0.0
2016-Apr-04 15:33N 29°45' W 095°10'0 0.0
2016-Apr-04 14:33N 29°45' W 095°10'0 0.0
2016-Apr-04 13:33N 29°45' W 095°10'0 0.0
2016-Apr-04 12:33N 29°45' W 095°10'0 0.0
2016-Apr-04 11:33N 29°45' W 095°10'0 0.0
2016-Apr-04 10:33N 29°45' W 095°10'0 0.0
2016-Apr-04 09:33N 29°45' W 095°10'0 0.0
2016-Apr-04 08:33N 29°45' W 095°10'0 0.0
2016-Apr-04 00:33N 29°45' W 095°10'3 3.0
2016-Apr-03 23:33N 29°44' W 095°07'8 7.8
2016-Apr-03 22:33N 29°41' W 094°59'1312.5
2016-Apr-03 21:33N 29°30' W 094°52'  

Dump ship's entire track history